Bear, Delaware
Current Conditions -  °F | °C
As of 6:51 AM on Saturday 25 Oct 2014 (Local Time) from KILG Reporting Station
Clear Clear  
Wind Chill: 45°   Ceiling: Unl
Heat Index: 45°   Visibility: 10mi
Dew Point: 39°   Wind: 3mph
Humidity: 80%   Direction: 240°WSW
Pressure: 29.93"   Gusts: NA
Location:  39.61°N, 75.69°W
Report Text: KILG 251051Z 24003KT 10SM CLR 07/04 A2993 RMK AO2 SLP134 T00720039
Loading
Personal Weather Stations






























Interactive Weather Map
Tropical Storm Tracking
New forecast layout! Learn more

10-Day Weather Forecast

Advertisements
Track Severe Weather on mobile